Terminal Aerodrome Forecast
Issued by NWS

Home | Current Version | Previous Version | Text Only | Print | Product List | Glossary On
Versions: 1 2 3 4 5 6 7 8 9 10 11 12
031
FTUS42 TJSJ 251120
TAFNCM
TAF
TNCM 251120Z 2512/2612 07006KT P6SM VCSH SCT018
     FM251430 09008KT P6SM FEW021
     FM252300 07006KT P6SM FEW018=

USA.gov is the U.S. government's official web portal to all federal, state and local government web resources and services.